createdAt,value
2017-07-14T00:00:05.606Z,935.8
2017-07-14T00:00:18.526Z,935.8
2017-07-14T00:00:31.920Z,935.81
2017-07-14T00:00:45.373Z,935.82
2017-07-14T00:00:58.262Z,935.8
2017-07-14T00:01:11.178Z,935.81
2017-07-14T00:01:24.577Z,935.84
2017-07-14T00:01:38.033Z,935.82
2017-07-14T00:01:50.908Z,935.83
2017-07-14T00:02:03.881Z,935.82
2017-07-14T00:02:16.833Z,935.82
2017-07-14T00:02:30.296Z,935.84
2017-07-14T00:02:43.748Z,935.84
2017-07-14T00:02:57.213Z,935.8
2017-07-14T00:03:10.137Z,935.84
2017-07-14T00:03:23.662Z,935.79
2017-07-14T00:03:37.048Z,935.81
2017-07-14T00:03:50.017Z,935.81
2017-07-14T00:04:03.515Z,935.81
2017-07-14T00:04:17.051Z,935.78
2017-07-14T00:04:30.495Z,935.79
2017-07-14T00:04:43.896Z,935.85
2017-07-14T00:04:57.277Z,935.83
2017-07-14T00:05:09.148Z,935.84
2017-07-14T00:05:22.629Z,935.84
2017-07-14T00:05:36.320Z,935.83
2017-07-14T00:05:48.766Z,935.8
2017-07-14T00:06:02.227Z,935.79
2017-07-14T00:06:15.725Z,935.8
2017-07-14T00:06:28.688Z,935.74
2017-07-14T00:06:41.631Z,935.77
2017-07-14T00:06:54.545Z,935.76
2017-07-14T00:07:08.033Z,935.76
2017-07-14T00:07:21.489Z,935.81
2017-07-14T00:07:34.992Z,935.76
2017-07-14T00:07:47.907Z,935.8
2017-07-14T00:08:01.377Z,935.8
2017-07-14T00:08:14.273Z,935.79
2017-07-14T00:08:27.239Z,935.81
2017-07-14T00:08:40.673Z,935.8
2017-07-14T00:08:54.079Z,935.8
2017-07-14T00:09:06.530Z,935.81
2017-07-14T00:09:19.971Z,935.79
2017-07-14T00:09:33.481Z,935.82
2017-07-14T00:09:46.962Z,935.85
2017-07-14T00:09:59.850Z,935.81
2017-07-14T00:10:13.332Z,935.77
2017-07-14T00:10:26.767Z,935.79
2017-07-14T00:10:40.246Z,935.82
2017-07-14T00:10:52.600Z,935.8
2017-07-14T00:11:06.879Z,935.8
2017-07-14T00:11:20.434Z,935.77
2017-07-14T00:11:32.920Z,935.82
2017-07-14T00:11:46.421Z,935.8
2017-07-14T00:11:59.860Z,935.79
2017-07-14T00:12:12.725Z,935.78
2017-07-14T00:12:26.148Z,935.8
2017-07-14T00:12:39.093Z,935.79
2017-07-14T00:12:52.567Z,935.79
2017-07-14T00:13:05.462Z,935.79
2017-07-14T00:13:18.944Z,935.81
2017-07-14T00:13:32.432Z,935.82
2017-07-14T00:13:45.887Z,935.82
2017-07-14T00:13:58.788Z,935.79
2017-07-14T00:14:11.775Z,935.8
2017-07-14T00:14:24.639Z,935.81
2017-07-14T00:14:38.109Z,935.8
2017-07-14T00:14:51.590Z,935.78
2017-07-14T00:15:04.509Z,935.8
2017-07-14T00:15:17.969Z,935.86
2017-07-14T00:15:30.298Z,935.8
2017-07-14T00:15:43.786Z,935.82
2017-07-14T00:15:56.682Z,935.84
2017-07-14T00:16:10.080Z,935.84
2017-07-14T00:16:22.406Z,935.83
2017-07-14T00:16:35.398Z,935.82
2017-07-14T00:16:48.357Z,935.84
2017-07-14T00:17:01.851Z,935.81
2017-07-14T00:17:14.766Z,935.81
2017-07-14T00:17:28.228Z,935.81
2017-07-14T00:17:41.699Z,935.83
2017-07-14T00:17:54.117Z,935.84
2017-07-14T00:18:06.528Z,935.82
2017-07-14T00:18:19.457Z,935.87
2017-07-14T00:18:32.324Z,935.83
2017-07-14T00:18:45.312Z,935.82
2017-07-14T00:18:58.261Z,935.8
2017-07-14T00:19:11.219Z,935.82
2017-07-14T00:19:24.667Z,935.82
2017-07-14T00:19:37.604Z,935.82
2017-07-14T00:19:50.557Z,935.79
2017-07-14T00:20:03.979Z,935.82
2017-07-14T00:20:16.889Z,935.79
2017-07-14T00:20:29.329Z,935.85
2017-07-14T00:20:42.799Z,935.82
2017-07-14T00:20:55.739Z,935.8
2017-07-14T00:21:08.768Z,935.83
2017-07-14T00:21:21.700Z,935.84
2017-07-14T00:21:35.252Z,935.87
2017-07-14T00:21:48.692Z,935.85
2017-07-14T00:22:01.877Z,935.83
2017-07-14T00:22:15.359Z,935.84
2017-07-14T00:22:27.227Z,935.8
2017-07-14T00:22:39.631Z,935.86
2017-07-14T00:22:51.498Z,935.82
2017-07-14T00:23:03.368Z,935.8
2017-07-14T00:23:14.662Z,935.84
2017-07-14T00:23:26.473Z,935.86
2017-07-14T00:23:39.347Z,935.85
2017-07-14T00:23:52.804Z,935.83
2017-07-14T00:24:04.650Z,935.8
2017-07-14T00:24:17.596Z,935.86
2017-07-14T00:24:31.080Z,935.84
2017-07-14T00:24:44.057Z,935.86
2017-07-14T00:24:57.522Z,935.85
2017-07-14T00:25:10.444Z,935.86
2017-07-14T00:25:23.393Z,935.9
2017-07-14T00:25:35.817Z,935.88
2017-07-14T00:25:49.270Z,935.85
2017-07-14T00:26:03.183Z,935.86
2017-07-14T00:26:16.681Z,935.91
2017-07-14T00:26:30.178Z,935.88
2017-07-14T00:26:43.618Z,935.88
2017-07-14T00:26:56.042Z,935.89
2017-07-14T00:27:09.479Z,935.92
2017-07-14T00:27:22.955Z,935.9
2017-07-14T00:27:36.413Z,935.89
2017-07-14T00:27:49.872Z,935.91
2017-07-14T00:28:02.824Z,935.93
2017-07-14T00:28:15.776Z,935.94
2017-07-14T00:28:29.255Z,935.88
2017-07-14T00:28:42.724Z,935.9
2017-07-14T00:28:56.201Z,935.92
2017-07-14T00:29:09.617Z,935.91
2017-07-14T00:29:23.125Z,935.91
2017-07-14T00:29:36.556Z,935.92
2017-07-14T00:29:50.043Z,935.96
2017-07-14T00:30:03.477Z,935.94
2017-07-14T00:30:16.945Z,935.93
2017-07-14T00:30:29.326Z,935.95
2017-07-14T00:30:42.209Z,935.95
2017-07-14T00:30:55.702Z,935.94
2017-07-14T00:31:08.300Z,935.94
2017-07-14T00:31:21.780Z,935.96
2017-07-14T00:31:35.236Z,935.96
2017-07-14T00:31:48.695Z,935.98
2017-07-14T00:32:01.160Z,935.96
2017-07-14T00:32:14.114Z,935.96
2017-07-14T00:32:27.603Z,935.98
2017-07-14T00:32:41.132Z,935.97
2017-07-14T00:32:54.607Z,935.97
2017-07-14T00:33:08.054Z,935.97
2017-07-14T00:33:21.540Z,935.99
2017-07-14T00:33:35.063Z,935.97
2017-07-14T00:33:48.516Z,935.98
2017-07-14T00:34:01.954Z,935.96
2017-07-14T00:34:14.346Z,935.96
2017-07-14T00:34:27.290Z,935.97
2017-07-14T00:34:40.778Z,935.98
2017-07-14T00:34:52.686Z,935.94
2017-07-14T00:35:06.088Z,935.97
2017-07-14T00:35:19.572Z,935.97
2017-07-14T00:35:31.980Z,935.98
2017-07-14T00:35:45.493Z,935.98
2017-07-14T00:35:59.007Z,935.99
2017-07-14T00:36:11.940Z,935.97
2017-07-14T00:36:25.439Z,936
2017-07-14T00:36:37.873Z,935.99
2017-07-14T00:36:51.384Z,935.98
2017-07-14T00:37:04.263Z,936.01
2017-07-14T00:37:17.691Z,936
2017-07-14T00:37:31.208Z,935.97
2017-07-14T00:37:44.179Z,935.97
2017-07-14T00:37:57.621Z,935.95
2017-07-14T00:38:11.086Z,936.02
2017-07-14T00:38:24.029Z,936
2017-07-14T00:38:37.509Z,936.03
2017-07-14T00:38:50.449Z,935.94
2017-07-14T00:39:03.378Z,935.98
2017-07-14T00:39:16.257Z,936
2017-07-14T00:39:29.153Z,936.01
2017-07-14T00:39:42.587Z,935.97
2017-07-14T00:39:55.479Z,935.97
2017-07-14T00:40:08.904Z,936.01
2017-07-14T00:40:21.821Z,936
2017-07-14T00:40:34.767Z,935.98
2017-07-14T00:40:48.248Z,935.97
2017-07-14T00:41:01.167Z,935.96
2017-07-14T00:41:15.361Z,935.96
2017-07-14T00:41:28.517Z,935.96
2017-07-14T00:41:41.288Z,935.99
2017-07-14T00:41:55.167Z,936.01
2017-07-14T00:42:08.560Z,936
2017-07-14T00:42:21.832Z,935.99
2017-07-14T00:42:34.754Z,935.98
2017-07-14T00:42:47.202Z,936.01
2017-07-14T00:43:00.633Z,935.98
2017-07-14T00:43:13.535Z,935.96
2017-07-14T00:43:27.029Z,935.99
2017-07-14T00:43:39.942Z,936
2017-07-14T00:43:52.893Z,935.99
2017-07-14T00:44:05.286Z,935.99
2017-07-14T00:44:18.707Z,935.99
2017-07-14T00:44:32.105Z,935.99
2017-07-14T00:44:45.573Z,936.01
2017-07-14T00:44:59.045Z,936
2017-07-14T00:45:12.501Z,935.99
2017-07-14T00:45:25.913Z,936.01
2017-07-14T00:45:39.428Z,935.99
2017-07-14T00:45:52.344Z,936
2017-07-14T00:46:05.303Z,935.97
2017-07-14T00:46:18.769Z,935.96
2017-07-14T00:46:31.694Z,935.98
2017-07-14T00:46:44.661Z,936
2017-07-14T00:46:58.174Z,936.01
2017-07-14T00:47:11.618Z,936.01
2017-07-14T00:47:25.054Z,935.98
2017-07-14T00:47:37.972Z,935.98
2017-07-14T00:47:50.942Z,935.98
2017-07-14T00:48:03.363Z,936.02
2017-07-14T00:48:16.325Z,936
2017-07-14T00:48:29.875Z,935.98
2017-07-14T00:48:43.315Z,935.99
2017-07-14T00:48:55.716Z,936
2017-07-14T00:49:08.635Z,936.03
2017-07-14T00:49:22.091Z,936
2017-07-14T00:49:35.574Z,936.03
2017-07-14T00:49:48.533Z,936.01
2017-07-14T00:50:02.052Z,936.01
2017-07-14T00:50:14.467Z,936.02
2017-07-14T00:50:27.338Z,936.03
2017-07-14T00:50:40.851Z,935.99
2017-07-14T00:50:53.735Z,936.02
2017-07-14T00:51:06.607Z,936.02
2017-07-14T00:51:18.998Z,936.01
2017-07-14T00:51:31.423Z,936.04
2017-07-14T00:51:44.293Z,936.03
2017-07-14T00:51:57.678Z,936
2017-07-14T00:52:11.146Z,936.01
2017-07-14T00:52:24.599Z,936.04
2017-07-14T00:52:38.054Z,936.03
2017-07-14T00:52:51.474Z,936.03
2017-07-14T00:53:04.886Z,936.02
2017-07-14T00:53:17.818Z,936.05
2017-07-14T00:53:31.240Z,936.02
2017-07-14T00:53:44.234Z,936.02
2017-07-14T00:53:57.185Z,936.04
2017-07-14T00:54:10.722Z,936.04
2017-07-14T00:54:23.690Z,936.04
2017-07-14T00:54:37.240Z,936.04
2017-07-14T00:54:50.740Z,936.05
2017-07-14T00:55:03.666Z,936.05
2017-07-14T00:55:16.579Z,936.04
2017-07-14T00:55:30.065Z,936.04
2017-07-14T00:55:43.545Z,936.07
2017-07-14T00:55:57.052Z,936.05
2017-07-14T00:56:10.424Z,936.04
2017-07-14T00:56:23.335Z,936.04
2017-07-14T00:56:36.214Z,936.03
2017-07-14T00:56:49.111Z,936.05
2017-07-14T00:57:02.013Z,936.07
2017-07-14T00:57:14.978Z,936.07
2017-07-14T00:57:28.528Z,936.08
2017-07-14T00:57:41.458Z,936.09
2017-07-14T00:57:54.355Z,936.07
2017-07-14T00:58:07.829Z,936.09
2017-07-14T00:58:20.218Z,936.08
2017-07-14T00:58:33.170Z,936.04
2017-07-14T00:58:46.630Z,936.1
2017-07-14T00:59:00.136Z,936.09
2017-07-14T00:59:13.011Z,936.1
2017-07-14T00:59:26.470Z,936.09
2017-07-14T00:59:39.907Z,936.14
2017-07-14T00:59:53.383Z,936.09
2017-07-14T01:00:06.774Z,936.1
2017-07-14T01:00:20.212Z,936.14
2017-07-14T01:00:33.744Z,936.07
2017-07-14T01:00:46.617Z,936.13
2017-07-14T01:01:00.099Z,936.12
2017-07-14T01:01:13.549Z,936.12
2017-07-14T01:01:25.399Z,936.13
2017-07-14T01:01:38.317Z,936.18
2017-07-14T01:01:51.773Z,936.16
2017-07-14T01:02:05.227Z,936.16
2017-07-14T01:02:18.692Z,936.11
2017-07-14T01:02:32.129Z,936.13
2017-07-14T01:02:45.063Z,936.13
2017-07-14T01:02:57.978Z,936.16
2017-07-14T01:03:11.434Z,936.17
2017-07-14T01:03:24.915Z,936.15
2017-07-14T01:03:37.312Z,936.09
2017-07-14T01:03:50.283Z,936.1
2017-07-14T01:04:03.207Z,936.14
2017-07-14T01:04:16.180Z,936.13
2017-07-14T01:04:29.648Z,936.13
2017-07-14T01:04:42.597Z,936.11
2017-07-14T01:04:56.028Z,936.1
2017-07-14T01:05:09.454Z,936.11
2017-07-14T01:05:22.411Z,936.12
2017-07-14T01:05:35.899Z,936.16
2017-07-14T01:05:49.372Z,936.15
2017-07-14T01:06:02.905Z,936.16
2017-07-14T01:06:15.844Z,936.15
2017-07-14T01:06:28.798Z,936.14
2017-07-14T01:06:41.733Z,936.12
2017-07-14T01:06:55.183Z,936.15
2017-07-14T01:07:08.621Z,936.13
2017-07-14T01:07:22.055Z,936.13
2017-07-14T01:07:34.946Z,936.13
2017-07-14T01:07:48.367Z,936.14
2017-07-14T01:08:01.844Z,936.15
2017-07-14T01:08:15.291Z,936.11
2017-07-14T01:08:28.798Z,936.13
2017-07-14T01:08:42.277Z,936.12
2017-07-14T01:08:55.140Z,936.14
2017-07-14T01:09:08.045Z,936.11
2017-07-14T01:09:21.462Z,936.14
2017-07-14T01:09:34.912Z,936.16
2017-07-14T01:09:48.342Z,936.18
2017-07-14T01:10:00.818Z,936.16
2017-07-14T01:10:13.779Z,936.18
2017-07-14T01:10:26.723Z,936.14
2017-07-14T01:10:39.657Z,936.19
2017-07-14T01:10:52.557Z,936.18
2017-07-14T01:11:05.477Z,936.19
2017-07-14T01:11:19.329Z,936.18
2017-07-14T01:11:32.788Z,936.17
2017-07-14T01:11:46.303Z,936.19
2017-07-14T01:11:58.668Z,936.2
2017-07-14T01:12:12.150Z,936.19
2017-07-14T01:12:25.620Z,936.19
2017-07-14T01:12:39.117Z,936.17
2017-07-14T01:12:52.615Z,936.2
2017-07-14T01:13:05.540Z,936.2
2017-07-14T01:13:19.069Z,936.18
2017-07-14T01:13:32.525Z,936.18
2017-07-14T01:13:45.456Z,936.2
2017-07-14T01:13:58.907Z,936.21
2017-07-14T01:14:10.758Z,936.17
2017-07-14T01:14:23.673Z,936.19
2017-07-14T01:14:36.604Z,936.2
2017-07-14T01:14:50.163Z,936.2
2017-07-14T01:15:03.633Z,936.23
2017-07-14T01:15:17.086Z,936.19
2017-07-14T01:15:30.016Z,936.22
2017-07-14T01:15:42.904Z,936.21
2017-07-14T01:15:55.836Z,936.21
2017-07-14T01:16:08.810Z,936.2
2017-07-14T01:16:21.724Z,936.21
2017-07-14T01:16:35.142Z,936.24
2017-07-14T01:16:48.692Z,936.16
2017-07-14T01:17:02.141Z,936.23
2017-07-14T01:17:14.026Z,936.21
2017-07-14T01:17:27.451Z,936.23
2017-07-14T01:17:40.927Z,936.2
2017-07-14T01:17:52.785Z,936.18
2017-07-14T01:18:06.287Z,936.21
2017-07-14T01:18:19.752Z,936.21
2017-07-14T01:18:32.160Z,936.2
2017-07-14T01:18:45.642Z,936.21
2017-07-14T01:18:58.590Z,936.23
2017-07-14T01:19:11.511Z,936.22
2017-07-14T01:19:24.902Z,936.23
2017-07-14T01:19:38.434Z,936.23
2017-07-14T01:19:51.919Z,936.22
2017-07-14T01:20:05.363Z,936.23
2017-07-14T01:20:18.264Z,936.23
2017-07-14T01:20:31.693Z,936.24
2017-07-14T01:20:44.051Z,936.22
2017-07-14T01:20:56.930Z,936.22
2017-07-14T01:21:10.435Z,936.23
2017-07-14T01:21:23.496Z,936.22
2017-07-14T01:21:36.947Z,936.24
2017-07-14T01:21:50.416Z,936.23
2017-07-14T01:22:03.855Z,936.23
2017-07-14T01:22:16.780Z,936.22
2017-07-14T01:22:28.660Z,936.22
2017-07-14T01:22:40.503Z,936.23
2017-07-14T01:22:52.983Z,936.22
2017-07-14T01:23:05.867Z,936.24
2017-07-14T01:23:17.756Z,936.21
2017-07-14T01:23:29.586Z,936.24
2017-07-14T01:23:43.015Z,936.21
2017-07-14T01:23:55.924Z,936.2
2017-07-14T01:24:08.300Z,936.22
2017-07-14T01:24:21.750Z,936.24
2017-07-14T01:24:35.216Z,936.21
2017-07-14T01:24:48.185Z,936.22
2017-07-14T01:25:01.124Z,936.19
2017-07-14T01:25:14.622Z,936.22
2017-07-14T01:25:27.023Z,936.21
2017-07-14T01:25:40.518Z,936.24
2017-07-14T01:25:53.455Z,936.23
2017-07-14T01:26:06.430Z,936.24
2017-07-14T01:26:18.820Z,936.24
2017-07-14T01:26:32.530Z,936.24
2017-07-14T01:26:45.473Z,936.28
2017-07-14T01:26:58.963Z,936.23
2017-07-14T01:27:11.914Z,936.28
2017-07-14T01:27:24.322Z,936.26
2017-07-14T01:27:36.673Z,936.26
2017-07-14T01:27:50.088Z,936.24
2017-07-14T01:28:03.085Z,936.29
2017-07-14T01:28:15.533Z,936.31
2017-07-14T01:28:28.983Z,936.31
2017-07-14T01:28:41.919Z,936.25
2017-07-14T01:28:55.420Z,936.3
2017-07-14T01:29:07.815Z,936.28
2017-07-14T01:29:20.779Z,936.3
2017-07-14T01:29:33.739Z,936.29
2017-07-14T01:29:47.186Z,936.28
2017-07-14T01:30:00.732Z,936.3
2017-07-14T01:30:14.262Z,936.27
2017-07-14T01:30:27.189Z,936.27
2017-07-14T01:30:40.104Z,936.26
2017-07-14T01:30:53.025Z,936.28
2017-07-14T01:31:06.478Z,936.24
2017-07-14T01:31:19.368Z,936.3
2017-07-14T01:31:32.885Z,936.27
2017-07-14T01:31:46.334Z,936.29
2017-07-14T01:31:59.784Z,936.26
2017-07-14T01:32:13.284Z,936.28
2017-07-14T01:32:26.716Z,936.3
2017-07-14T01:32:39.616Z,936.26
2017-07-14T01:32:52.546Z,936.27
2017-07-14T01:33:06.009Z,936.27
2017-07-14T01:33:19.415Z,936.23
2017-07-14T01:33:32.914Z,936.26
2017-07-14T01:33:45.852Z,936.24
2017-07-14T01:33:58.817Z,936.24
2017-07-14T01:34:11.734Z,936.26
2017-07-14T01:34:24.671Z,936.26
2017-07-14T01:34:37.561Z,936.2
2017-07-14T01:34:50.511Z,936.23
2017-07-14T01:35:03.965Z,936.24
2017-07-14T01:35:16.870Z,936.25
2017-07-14T01:35:30.326Z,936.25
2017-07-14T01:35:44.056Z,936.24
2017-07-14T01:35:57.045Z,936.22
2017-07-14T01:36:09.967Z,936.21
2017-07-14T01:36:22.412Z,936.2
2017-07-14T01:36:35.366Z,936.2
2017-07-14T01:36:47.829Z,936.22
2017-07-14T01:37:00.257Z,936.19
2017-07-14T01:37:12.703Z,936.2
2017-07-14T01:37:26.173Z,936.2
2017-07-14T01:37:39.582Z,936.19
2017-07-14T01:37:52.572Z,936.22
2017-07-14T01:38:05.487Z,936.22
2017-07-14T01:38:18.932Z,936.26
2017-07-14T01:38:31.857Z,936.23
2017-07-14T01:38:44.732Z,936.24
2017-07-14T01:38:57.690Z,936.26
2017-07-14T01:39:10.544Z,936.25
2017-07-14T01:39:24.027Z,936.2
2017-07-14T01:39:37.000Z,936.2
2017-07-14T01:39:50.402Z,936.21
2017-07-14T01:40:03.388Z,936.24
2017-07-14T01:40:17.106Z,936.22
2017-07-14T01:40:30.564Z,936.24
2017-07-14T01:40:43.544Z,936.25
2017-07-14T01:40:57.050Z,936.23
2017-07-14T01:41:10.445Z,936.23
2017-07-14T01:41:23.417Z,936.25
2017-07-14T01:41:37.648Z,936.26
2017-07-14T01:41:50.553Z,936.22
2017-07-14T01:42:03.987Z,936.23
2017-07-14T01:42:17.431Z,936.26
2017-07-14T01:42:30.926Z,936.25
2017-07-14T01:42:44.339Z,936.24
2017-07-14T01:42:57.772Z,936.26
2017-07-14T01:43:11.232Z,936.23
2017-07-14T01:43:24.711Z,936.25
2017-07-14T01:43:38.182Z,936.25
2017-07-14T01:43:51.587Z,936.22
2017-07-14T01:44:04.520Z,936.27
2017-07-14T01:44:17.912Z,936.25
2017-07-14T01:44:30.885Z,936.23
2017-07-14T01:44:43.267Z,936.24
2017-07-14T01:44:56.700Z,936.24
2017-07-14T01:45:10.121Z,936.3
2017-07-14T01:45:23.642Z,936.23
2017-07-14T01:45:37.113Z,936.23
2017-07-14T01:45:50.624Z,936.27
2017-07-14T01:46:03.542Z,936.24
2017-07-14T01:46:17.054Z,936.27
2017-07-14T01:46:30.778Z,936.26
2017-07-14T01:46:43.774Z,936.27
2017-07-14T01:46:57.258Z,936.3
2017-07-14T01:47:10.198Z,936.25
2017-07-14T01:47:22.608Z,936.26
2017-07-14T01:47:35.543Z,936.28
2017-07-14T01:47:49.023Z,936.28
2017-07-14T01:48:02.510Z,936.27
2017-07-14T01:48:14.875Z,936.32
2017-07-14T01:48:28.282Z,936.25
2017-07-14T01:48:41.199Z,936.26
2017-07-14T01:48:53.056Z,936.26
2017-07-14T01:49:06.535Z,936.26
2017-07-14T01:49:19.946Z,936.31
2017-07-14T01:49:33.386Z,936.28
2017-07-14T01:49:45.745Z,936.29
2017-07-14T01:49:59.182Z,936.28
2017-07-14T01:50:12.672Z,936.29
2017-07-14T01:50:26.182Z,936.26
2017-07-14T01:50:39.645Z,936.26
2017-07-14T01:50:52.586Z,936.28
2017-07-14T01:51:06.103Z,936.26
2017-07-14T01:51:19.610Z,936.23
2017-07-14T01:51:33.231Z,936.27
2017-07-14T01:51:46.714Z,936.28
2017-07-14T01:52:00.166Z,936.28
2017-07-14T01:52:13.644Z,936.24
2017-07-14T01:52:27.150Z,936.29
2017-07-14T01:52:40.586Z,936.24
2017-07-14T01:52:52.960Z,936.27
2017-07-14T01:53:06.423Z,936.28
2017-07-14T01:53:19.901Z,936.28
2017-07-14T01:53:33.354Z,936.28
2017-07-14T01:53:46.870Z,936.26
2017-07-14T01:53:59.825Z,936.25
2017-07-14T01:54:13.289Z,936.28
2017-07-14T01:54:26.758Z,936.25
2017-07-14T01:54:40.169Z,936.28
2017-07-14T01:54:53.622Z,936.22
2017-07-14T01:55:07.094Z,936.25
2017-07-14T01:55:20.034Z,936.25
2017-07-14T01:55:31.951Z,936.27
2017-07-14T01:55:44.387Z,936.27
2017-07-14T01:55:57.895Z,936.26
2017-07-14T01:56:11.309Z,936.26
2017-07-14T01:56:24.193Z,936.27
2017-07-14T01:56:38.093Z,936.23
2017-07-14T01:56:51.030Z,936.21
2017-07-14T01:57:04.549Z,936.22
2017-07-14T01:57:17.942Z,936.23
2017-07-14T01:57:31.433Z,936.24
2017-07-14T01:57:44.862Z,936.24
2017-07-14T01:57:58.311Z,936.24
2017-07-14T01:58:11.222Z,936.23
2017-07-14T01:58:24.708Z,936.24
2017-07-14T01:58:38.207Z,936.28
2017-07-14T01:58:51.726Z,936.24
2017-07-14T01:59:05.143Z,936.26
2017-07-14T01:59:18.094Z,936.26
2017-07-14T01:59:30.998Z,936.26
2017-07-14T01:59:44.415Z,936.26
2017-07-14T01:59:57.293Z,936.24
2017-07-14T02:00:10.208Z,936.34
2017-07-14T02:00:23.682Z,936.3
2017-07-14T02:00:36.584Z,936.27
2017-07-14T02:00:49.515Z,936.29
2017-07-14T02:01:02.956Z,936.29
2017-07-14T02:01:15.830Z,936.27
2017-07-14T02:01:29.307Z,936.25
2017-07-14T02:01:42.927Z,936.26
2017-07-14T02:01:55.794Z,936.25
2017-07-14T02:02:08.751Z,936.25
2017-07-14T02:02:21.666Z,936.26
2017-07-14T02:02:35.156Z,936.24
2017-07-14T02:02:48.620Z,936.27
2017-07-14T02:03:01.596Z,936.27
2017-07-14T02:03:15.056Z,936.27
2017-07-14T02:03:28.483Z,936.25
2017-07-14T02:03:41.403Z,936.24
2017-07-14T02:03:54.314Z,936.27
2017-07-14T02:04:07.242Z,936.29
2017-07-14T02:04:20.741Z,936.27
2017-07-14T02:04:34.241Z,936.24
2017-07-14T02:04:47.730Z,936.26
2017-07-14T02:05:00.184Z,936.25
2017-07-14T02:05:13.128Z,936.26
2017-07-14T02:05:24.961Z,936.23
2017-07-14T02:05:37.400Z,936.24
2017-07-14T02:05:50.307Z,936.21
2017-07-14T02:06:03.787Z,936.23
2017-07-14T02:06:17.258Z,936.19
2017-07-14T02:06:30.745Z,936.21
2017-07-14T02:06:44.249Z,936.18
2017-07-14T02:06:57.693Z,936.21
2017-07-14T02:07:10.596Z,936.21
2017-07-14T02:07:24.071Z,936.2
2017-07-14T02:07:37.025Z,936.19
2017-07-14T02:07:50.473Z,936.19
2017-07-14T02:08:03.990Z,936.19
2017-07-14T02:08:16.914Z,936.17
2017-07-14T02:08:30.328Z,936.16
2017-07-14T02:08:43.795Z,936.16
2017-07-14T02:08:57.246Z,936.18
2017-07-14T02:09:10.133Z,936.18
2017-07-14T02:09:23.586Z,936.16
2017-07-14T02:09:37.051Z,936.18
2017-07-14T02:09:50.470Z,936.15
2017-07-14T02:10:03.404Z,936.16
2017-07-14T02:10:15.830Z,936.19
2017-07-14T02:10:28.750Z,936.17
2017-07-14T02:10:42.185Z,936.14
2017-07-14T02:10:55.611Z,936.19
2017-07-14T02:11:08.612Z,936.2
2017-07-14T02:11:22.095Z,936.14
2017-07-14T02:11:34.516Z,936.16
2017-07-14T02:11:48.740Z,936.18
2017-07-14T02:12:01.697Z,936.19
2017-07-14T02:12:14.676Z,936.16
2017-07-14T02:12:28.132Z,936.12
2017-07-14T02:12:41.042Z,936.13
2017-07-14T02:12:53.971Z,936.12
2017-07-14T02:13:06.894Z,936.14
2017-07-14T02:13:20.452Z,936.15
2017-07-14T02:13:33.854Z,936.14
2017-07-14T02:13:47.361Z,936.15
2017-07-14T02:14:00.803Z,936.14
2017-07-14T02:14:14.327Z,936.11
2017-07-14T02:14:27.290Z,936.14
2017-07-14T02:14:39.719Z,936.11
2017-07-14T02:14:52.653Z,936.17
2017-07-14T02:15:05.065Z,936.13
2017-07-14T02:15:18.532Z,936.14
2017-07-14T02:15:31.464Z,936.12
2017-07-14T02:15:44.414Z,936.11
2017-07-14T02:15:57.848Z,936.14
2017-07-14T02:16:10.704Z,936.15
2017-07-14T02:16:23.154Z,936.14
2017-07-14T02:16:36.665Z,936.11
2017-07-14T02:16:50.079Z,936.14
2017-07-14T02:17:03.491Z,936.12
2017-07-14T02:17:16.483Z,936.1
2017-07-14T02:17:29.981Z,936.09
2017-07-14T02:17:43.441Z,936.1
2017-07-14T02:17:56.355Z,936.1
2017-07-14T02:18:09.274Z,936.13
2017-07-14T02:18:22.677Z,936.1
2017-07-14T02:18:36.152Z,936.11
2017-07-14T02:18:49.068Z,936.09
2017-07-14T02:19:02.509Z,936.14
2017-07-14T02:19:15.417Z,936.09
2017-07-14T02:19:28.907Z,936.12
2017-07-14T02:19:42.411Z,936.14
2017-07-14T02:19:55.848Z,936.09
2017-07-14T02:20:08.215Z,936.11
2017-07-14T02:20:21.195Z,936.13
2017-07-14T02:20:34.136Z,936.15
2017-07-14T02:20:47.014Z,936.11
2017-07-14T02:21:00.461Z,936.14
2017-07-14T02:21:13.902Z,936.14
2017-07-14T02:21:27.370Z,936.12
2017-07-14T02:21:40.300Z,936.14
2017-07-14T02:21:53.752Z,936.12
2017-07-14T02:22:07.227Z,936.12
2017-07-14T02:22:19.602Z,936.13
2017-07-14T02:22:30.927Z,936.14
2017-07-14T02:22:42.821Z,936.12
2017-07-14T02:22:55.227Z,936.13
2017-07-14T02:23:07.627Z,936.11
2017-07-14T02:23:20.070Z,936.12
2017-07-14T02:23:31.400Z,936.11
2017-07-14T02:23:43.284Z,936.1
2017-07-14T02:23:56.171Z,936.17
2017-07-14T02:24:09.129Z,936.1
2017-07-14T02:24:22.044Z,936.12
2017-07-14T02:24:35.610Z,936.13
2017-07-14T02:24:49.177Z,936.12
2017-07-14T02:25:01.012Z,936.14
2017-07-14T02:25:14.471Z,936.12
2017-07-14T02:25:27.923Z,936.15
2017-07-14T02:25:41.341Z,936.15
2017-07-14T02:25:54.752Z,936.14
2017-07-14T02:26:07.664Z,936.16
2017-07-14T02:26:20.556Z,936.16
2017-07-14T02:26:34.044Z,936.12
2017-07-14T02:26:47.737Z,936.14
2017-07-14T02:27:01.230Z,936.13
2017-07-14T02:27:14.707Z,936.17
2017-07-14T02:27:28.178Z,936.12
2017-07-14T02:27:41.101Z,936.14
2017-07-14T02:27:54.536Z,936.09
2017-07-14T02:28:07.474Z,936.1
2017-07-14T02:28:19.858Z,936.08
2017-07-14T02:28:33.394Z,936.08
2017-07-14T02:28:46.329Z,936.1
2017-07-14T02:28:59.256Z,936.07
2017-07-14T02:29:12.637Z,936.1
2017-07-14T02:29:25.530Z,936.07
2017-07-14T02:29:38.453Z,936.09
2017-07-14T02:29:51.359Z,936.1
2017-07-14T02:30:04.337Z,936.07
2017-07-14T02:30:16.722Z,936.07
2017-07-14T02:30:30.193Z,936.06
2017-07-14T02:30:43.151Z,936.04
2017-07-14T02:30:56.052Z,936.06
2017-07-14T02:31:08.953Z,936.05
2017-07-14T02:31:21.840Z,936.04
2017-07-14T02:31:35.293Z,936.03
2017-07-14T02:31:48.781Z,936.05
2017-07-14T02:32:02.248Z,936.07
2017-07-14T02:32:15.649Z,936.03
2017-07-14T02:32:28.561Z,936.03
2017-07-14T02:32:41.469Z,936.04
2017-07-14T02:32:54.941Z,936.01
2017-07-14T02:33:07.323Z,936.02
2017-07-14T02:33:20.194Z,936.01
2017-07-14T02:33:33.700Z,936.06
2017-07-14T02:33:47.147Z,936.01
2017-07-14T02:34:00.601Z,936.04
2017-07-14T02:34:13.536Z,936.02
2017-07-14T02:34:26.938Z,936.02
2017-07-14T02:34:39.911Z,936.02
2017-07-14T02:34:52.753Z,936.08
2017-07-14T02:35:05.706Z,936.05
2017-07-14T02:35:19.153Z,936.02
2017-07-14T02:35:32.082Z,936.03
2017-07-14T02:35:45.531Z,936.02
2017-07-14T02:35:57.977Z,936.01
2017-07-14T02:36:10.929Z,936.03
2017-07-14T02:36:22.294Z,935.99
2017-07-14T02:36:35.217Z,936.06
2017-07-14T02:36:48.773Z,936.03
2017-07-14T02:37:01.132Z,936.04
2017-07-14T02:37:14.113Z,936
2017-07-14T02:37:27.097Z,936
2017-07-14T02:37:40.032Z,936.02
2017-07-14T02:37:53.484Z,936.02
2017-07-14T02:38:06.388Z,936.03
2017-07-14T02:38:19.851Z,936.03
2017-07-14T02:38:33.290Z,936.04
2017-07-14T02:38:46.817Z,936.03
2017-07-14T02:38:59.761Z,936.05
2017-07-14T02:39:12.701Z,936.06
2017-07-14T02:39:25.581Z,936.04
2017-07-14T02:39:39.065Z,936.05
2017-07-14T02:39:52.508Z,936.06
2017-07-14T02:40:05.413Z,936.02
2017-07-14T02:40:17.844Z,936.04
2017-07-14T02:40:31.329Z,936.06
2017-07-14T02:40:44.300Z,936.05
2017-07-14T02:40:57.771Z,936.05
2017-07-14T02:41:11.209Z,936.03
2017-07-14T02:41:24.095Z,936
2017-07-14T02:41:37.580Z,936.03
2017-07-14T02:41:52.101Z,936.06
2017-07-14T02:42:05.098Z,936.01
2017-07-14T02:42:18.069Z,936.03
2017-07-14T02:42:31.568Z,936.05
2017-07-14T02:42:44.441Z,936.02
2017-07-14T02:42:57.888Z,936.04
2017-07-14T02:43:11.410Z,936
2017-07-14T02:43:24.827Z,936.03
2017-07-14T02:43:37.762Z,936.03
2017-07-14T02:43:51.214Z,936
2017-07-14T02:44:04.098Z,935.99
2017-07-14T02:44:17.048Z,936.01
2017-07-14T02:44:30.517Z,935.98
2017-07-14T02:44:44.019Z,936.02